Time,TemperatureF,DewpointF,PressureIn,WindDirection,WindDirectionDegrees,WindSpeedMPH,WindSpeedGustMPH,Humidity,HourlyPrecipIn,Conditions,Clouds,dailyrainin,SoftwareType,DateUTC
2013-07-17 00:07:00,59.0,56.1,29.86,NNW,337,2.2,-999.0,90,-99.99,,,0.00,Acu-Link.com,2013-07-17 07:07:00,
2013-07-17 00:22:00,59.0,55.4,29.85,NNW,337,2.7,-999.0,88,-99.99,,,0.00,Acu-Link.com,2013-07-17 07:22:00,
2013-07-17 00:37:00,59.2,55.6,29.86,NE,45,2.7,-999.0,88,-99.99,,,0.00,Acu-Link.com,2013-07-17 07:37:00,
2013-07-17 00:52:00,59.2,55.6,29.86,West,270,3.2,-999.0,88,-99.99,,,0.00,Acu-Link.com,2013-07-17 07:52:00,
2013-07-17 01:07:00,59.2,55.6,29.86,North,0,2.2,-999.0,88,-99.99,,,0.00,Acu-Link.com,2013-07-17 08:07:00,
2013-07-17 01:23:00,59.2,55.6,29.86,West,270,2.2,-999.0,88,-99.99,,,0.00,Acu-Link.com,2013-07-17 08:23:00,
2013-07-17 01:38:00,59.2,55.6,29.86,West,270,0.0,-999.0,88,-99.99,,,0.00,Acu-Link.com,2013-07-17 08:38:00,
2013-07-17 01:53:00,59.2,55.6,29.86,ESE,112,1.1,-999.0,88,-99.99,,,0.00,Acu-Link.com,2013-07-17 08:53:00,
2013-07-17 02:09:00,59.2,55.6,29.87,West,270,3.2,-999.0,88,-99.99,,,0.00,Acu-Link.com,2013-07-17 09:09:00,
2013-07-17 02:24:00,59.2,55.6,29.86,WNW,292,2.2,-999.0,88,-99.99,,,0.00,Acu-Link.com,2013-07-17 09:24:00,
2013-07-17 02:39:00,59.0,55.4,29.86,West,270,0.0,-999.0,88,-99.99,,,0.00,Acu-Link.com,2013-07-17 09:39:00,
2013-07-17 02:54:00,59.0,55.4,29.86,WNW,292,3.2,-999.0,88,-99.99,,,0.00,Acu-Link.com,2013-07-17 09:54:00,
2013-07-17 03:09:00,58.8,55.3,29.86,North,0,3.7,-999.0,88,-99.99,,,0.00,Acu-Link.com,2013-07-17 10:09:00,
2013-07-17 03:25:00,58.8,55.3,29.86,WNW,292,2.2,-999.0,88,-99.99,,,0.00,Acu-Link.com,2013-07-17 10:25:00,
2013-07-17 03:40:00,58.6,55.4,29.85,West,270,3.7,-999.0,89,-99.99,,,0.00,Acu-Link.com,2013-07-17 10:40:00,
2013-07-17 03:55:00,58.6,55.4,29.86,WSW,247,2.2,-999.0,89,-99.99,,,0.00,Acu-Link.com,2013-07-17 10:55:00,
2013-07-17 04:11:00,58.5,55.3,29.86,NNW,337,1.7,-999.0,89,-99.99,,,0.00,Acu-Link.com,2013-07-17 11:11:00,
2013-07-17 04:26:00,58.5,55.3,29.86,SSW,202,4.2,-999.0,89,-99.99,,,0.00,Acu-Link.com,2013-07-17 11:26:00,
2013-07-17 04:41:00,58.3,55.1,29.86,NW,315,1.1,-999.0,89,-99.99,,,0.00,Acu-Link.com,2013-07-17 11:41:00,
2013-07-17 04:57:00,58.3,55.1,29.86,NNW,337,3.2,-999.0,89,-99.99,,,0.00,Acu-Link.com,2013-07-17 11:57:00,
2013-07-17 05:12:00,58.3,55.1,29.87,NNW,337,1.1,-999.0,89,-99.99,,,0.00,Acu-Link.com,2013-07-17 12:12:00,
2013-07-17 05:27:00,58.1,54.9,29.87,NE,45,1.7,-999.0,89,-99.99,,,0.00,Acu-Link.com,2013-07-17 12:27:00,
2013-07-17 05:42:00,58.1,54.9,29.87,NNW,337,2.2,-999.0,89,-99.99,,,0.00,Acu-Link.com,2013-07-17 12:42:00,
2013-07-17 05:58:00,57.9,54.7,29.87,SW,225,4.2,-999.0,89,-99.99,,,0.00,Acu-Link.com,2013-07-17 12:58:00,
2013-07-17 06:13:00,57.9,54.7,29.88,WSW,247,1.1,-999.0,89,-99.99,,,0.00,Acu-Link.com,2013-07-17 13:13:00,
2013-07-17 06:29:00,57.9,54.7,29.88,East,90,1.7,-999.0,89,-99.99,,,0.00,Acu-Link.com,2013-07-17 13:29:00,
2013-07-17 06:44:00,57.9,54.7,29.89,West,270,2.2,-999.0,89,-99.99,,,0.00,Acu-Link.com,2013-07-17 13:44:00,
2013-07-17 06:59:00,58.1,54.9,29.89,West,270,2.7,-999.0,89,-99.99,,,0.00,Acu-Link.com,2013-07-17 13:59:00,
2013-07-17 07:15:00,58.3,55.1,29.90,SSW,202,1.7,-999.0,89,-99.99,,,0.00,Acu-Link.com,2013-07-17 14:15:00,
2013-07-17 07:30:00,58.5,55.0,29.90,NW,315,1.7,-999.0,88,-99.99,,,0.00,Acu-Link.com,2013-07-17 14:30:00,
2013-07-17 07:45:00,58.5,55.0,29.90,NW,315,1.7,-999.0,88,-99.99,,,0.00,Acu-Link.com,2013-07-17 14:45:00,
2013-07-17 08:00:00,58.6,55.1,29.91,West,270,3.2,-999.0,88,-99.99,,,0.00,Acu-Link.com,2013-07-17 15:00:00,
2013-07-17 08:16:00,58.6,55.4,29.91,NNW,337,1.1,-999.0,89,-99.99,,,0.00,Acu-Link.com,2013-07-17 15:16:00,
2013-07-17 08:31:00,58.8,55.6,29.91,NNW,337,2.2,-999.0,89,-99.99,,,0.00,Acu-Link.com,2013-07-17 15:31:00,
2013-07-17 08:46:00,59.4,56.2,29.92,East,90,0.0,-999.0,89,-99.99,,,0.00,Acu-Link.com,2013-07-17 15:46:00,
2013-07-17 09:02:00,59.5,55.9,29.92,West,270,2.7,-999.0,88,-99.99,,,0.00,Acu-Link.com,2013-07-17 16:02:00,
2013-07-17 09:17:00,60.3,56.1,29.92,ESE,112,2.2,-999.0,86,-99.99,,,0.00,Acu-Link.com,2013-07-17 16:17:00,
2013-07-17 09:32:00,60.6,55.7,29.92,NNW,337,1.7,-999.0,84,-99.99,,,0.00,Acu-Link.com,2013-07-17 16:32:00,
2013-07-17 09:48:00,60.6,55.7,29.92,SW,225,2.7,-999.0,84,-99.99,,,0.00,Acu-Link.com,2013-07-17 16:48:00,
2013-07-17 10:03:00,61.2,56.0,29.93,ENE,67,4.2,-999.0,83,-99.99,,,0.00,Acu-Link.com,2013-07-17 17:03:00,
2013-07-17 10:18:00,60.6,55.7,29.93,NW,315,1.7,-999.0,84,-99.99,,,0.00,Acu-Link.com,2013-07-17 17:18:00,
2013-07-17 10:33:00,61.3,55.8,29.93,North,0,3.7,-999.0,82,-99.99,,,0.00,Acu-Link.com,2013-07-17 17:33:00,
2013-07-17 10:49:00,62.1,55.9,29.93,West,270,2.7,-999.0,80,-99.99,,,0.00,Acu-Link.com,2013-07-17 17:49:00,
2013-07-17 11:04:00,62.6,56.0,29.93,North,0,4.7,-999.0,79,-99.99,,,0.00,Acu-Link.com,2013-07-17 18:04:00,
2013-07-17 11:20:00,63.9,55.8,29.93,WNW,292,3.2,-999.0,75,-99.99,,,0.00,Acu-Link.com,2013-07-17 18:20:00,
2013-07-17 11:35:00,63.9,55.8,29.93,WSW,247,3.2,-999.0,75,-99.99,,,0.00,Acu-Link.com,2013-07-17 18:35:00,
2013-07-17 11:51:00,64.4,55.9,29.93,NW,315,2.2,-999.0,74,-99.99,,,0.00,Acu-Link.com,2013-07-17 18:51:00,
2013-07-17 12:06:00,67.6,56.7,29.93,WNW,292,7.3,-999.0,68,-99.99,,,0.00,Acu-Link.com,2013-07-17 19:06:00,
2013-07-17 12:22:00,68.4,57.0,29.93,WSW,247,6.3,-999.0,67,-99.99,,,0.00,Acu-Link.com,2013-07-17 19:22:00,
2013-07-17 12:37:00,67.6,56.2,29.93,WNW,292,6.3,-999.0,67,-99.99,,,0.00,Acu-Link.com,2013-07-17 19:37:00,
2013-07-17 12:52:00,68.4,56.6,29.93,SSE,157,7.3,-999.0,66,-99.99,,,0.00,Acu-Link.com,2013-07-17 19:52:00,
2013-07-17 13:07:00,67.8,56.4,29.93,NW,315,8.3,-999.0,67,-99.99,,,0.00,Acu-Link.com,2013-07-17 20:07:00,
2013-07-17 13:22:00,69.4,57.1,29.92,North,0,6.8,-999.0,65,-99.99,,,0.00,Acu-Link.com,2013-07-17 20:22:00,
2013-07-17 13:37:00,69.3,56.6,29.92,West,270,6.3,-999.0,64,-99.99,,,0.00,Acu-Link.com,2013-07-17 20:37:00,
2013-07-17 13:53:00,69.1,56.8,29.92,West,270,7.8,-999.0,65,-99.99,,,0.00,Acu-Link.com,2013-07-17 20:53:00,
2013-07-17 14:08:00,69.3,56.6,29.92,ENE,67,5.8,-999.0,64,-99.99,,,0.00,Acu-Link.com,2013-07-17 21:08:00,
2013-07-17 14:23:00,69.3,56.6,29.92,NNW,337,5.8,-999.0,64,-99.99,,,0.00,Acu-Link.com,2013-07-17 21:23:00,
2013-07-17 14:38:00,70.5,56.8,29.91,SSW,202,3.7,-999.0,62,-99.99,,,0.00,Acu-Link.com,2013-07-17 21:38:00,
2013-07-17 14:54:00,69.4,56.2,29.91,West,270,5.8,-999.0,63,-99.99,,,0.00,Acu-Link.com,2013-07-17 21:54:00,
2013-07-17 15:09:00,70.0,56.8,29.91,NNE,22,2.2,-999.0,63,-99.99,,,0.00,Acu-Link.com,2013-07-17 22:09:00,
2013-07-17 15:24:00,69.6,56.0,29.90,WNW,292,8.3,-999.0,62,-99.99,,,0.00,Acu-Link.com,2013-07-17 22:24:00,
2013-07-17 15:39:00,69.1,55.5,29.90,SW,225,5.8,-999.0,62,-99.99,,,0.00,Acu-Link.com,2013-07-17 22:39:00,
2013-07-17 15:54:00,68.9,55.8,29.90,North,0,5.3,-999.0,63,-99.99,,,0.00,Acu-Link.com,2013-07-17 22:54:00,
2013-07-17 16:10:00,69.1,56.0,29.90,NNE,22,6.8,-999.0,63,-99.99,,,0.00,Acu-Link.com,2013-07-17 23:10:00,
2013-07-17 16:25:00,67.8,55.6,29.90,SSW,202,3.2,-999.0,65,-99.99,,,0.00,Acu-Link.com,2013-07-17 23:25:00,
2013-07-17 16:40:00,67.8,55.6,29.89,West,270,5.8,-999.0,65,-99.99,,,0.00,Acu-Link.com,2013-07-17 23:40:00,
2013-07-17 16:55:00,66.0,55.1,29.88,ESE,112,4.7,-999.0,68,-99.99,,,0.00,Acu-Link.com,2013-07-17 23:55:00,
2013-07-17 17:10:00,69.1,56.0,29.88,East,90,5.3,-999.0,63,-99.99,,,0.00,Acu-Link.com,2013-07-18 00:10:00,
2013-07-17 17:25:00,68.2,56.0,29.88,West,270,5.3,-999.0,65,-99.99,,,0.00,Acu-Link.com,2013-07-18 00:25:00,
2013-07-17 17:40:00,68.2,55.5,29.88,WNW,292,7.8,-999.0,64,-99.99,,,0.00,Acu-Link.com,2013-07-18 00:40:00,
2013-07-17 17:56:00,66.2,55.3,29.87,South,180,4.7,-999.0,68,-99.99,,,0.00,Acu-Link.com,2013-07-18 00:56:00,
2013-07-17 18:11:00,65.5,55.1,29.87,NNE,22,3.7,-999.0,69,-99.99,,,0.00,Acu-Link.com,2013-07-18 01:11:00,
2013-07-17 18:26:00,60.4,54.2,29.87,SW,225,2.7,-999.0,80,-99.99,,,0.00,Acu-Link.com,2013-07-18 01:26:00,
2013-07-17 18:41:00,59.2,54.4,29.87,NNE,22,5.3,-999.0,84,-99.99,,,0.00,Acu-Link.com,2013-07-18 01:41:00,
2013-07-17 18:57:00,58.5,54.3,29.87,West,270,5.8,-999.0,86,-99.99,,,0.00,Acu-Link.com,2013-07-18 01:57:00,
2013-07-17 19:12:00,58.5,54.3,29.87,North,0,6.3,-999.0,86,-99.99,,,0.00,Acu-Link.com,2013-07-18 02:12:00,
2013-07-17 19:27:00,58.5,54.3,29.87,NE,45,4.7,-999.0,86,-99.99,,,0.00,Acu-Link.com,2013-07-18 02:27:00,
2013-07-17 19:42:00,57.7,54.2,29.88,NNW,337,9.9,-999.0,88,-99.99,,,0.00,Acu-Link.com,2013-07-18 02:42:00,
2013-07-17 19:58:00,57.0,54.1,29.88,West,270,3.7,-999.0,90,-99.99,,,0.00,Acu-Link.com,2013-07-18 02:58:00,
2013-07-17 20:13:00,56.7,53.8,29.88,NNE,22,5.3,-999.0,90,-99.99,,,0.00,Acu-Link.com,2013-07-18 03:13:00,
2013-07-17 20:28:00,55.9,53.9,29.89,West,270,4.2,-999.0,93,-99.99,,,0.00,Acu-Link.com,2013-07-18 03:28:00,
2013-07-17 20:43:00,55.4,53.7,29.88,WSW,247,7.8,-999.0,94,-99.99,,,0.00,Acu-Link.com,2013-07-18 03:43:00,
2013-07-17 20:58:00,55.4,53.7,29.88,West,270,5.3,-999.0,94,-99.99,,,0.00,Acu-Link.com,2013-07-18 03:58:00,
2013-07-17 21:14:00,55.6,53.9,29.88,SW,225,3.2,-999.0,94,-99.99,,,0.00,Acu-Link.com,2013-07-18 04:14:00,
2013-07-17 21:29:00,55.4,53.7,29.89,North,0,4.2,-999.0,94,-99.99,,,0.00,Acu-Link.com,2013-07-18 04:29:00,
2013-07-17 21:44:00,55.4,54.0,29.89,NW,315,4.7,-999.0,95,-99.99,,,0.00,Acu-Link.com,2013-07-18 04:44:00,
2013-07-17 21:59:00,55.4,54.0,29.90,NW,315,3.7,-999.0,95,-99.99,,,0.00,Acu-Link.com,2013-07-18 04:59:00,
2013-07-17 22:14:00,55.6,54.2,29.90,NE,45,2.2,-999.0,95,-99.99,,,0.00,Acu-Link.com,2013-07-18 05:14:00,
2013-07-17 22:30:00,55.6,54.2,29.90,West,270,4.7,-999.0,95,-99.99,,,0.00,Acu-Link.com,2013-07-18 05:30:00,
2013-07-17 22:45:00,55.4,54.0,29.90,NNE,22,2.2,-999.0,95,-99.99,,,0.00,Acu-Link.com,2013-07-18 05:45:00,
2013-07-17 23:00:00,55.4,54.0,29.90,ESE,112,1.7,-999.0,95,-99.99,,,0.00,Acu-Link.com,2013-07-18 06:00:00,
2013-07-17 23:16:00,55.6,54.2,29.90,NW,315,4.7,-999.0,95,-99.99,,,0.00,Acu-Link.com,2013-07-18 06:16:00,
2013-07-17 23:31:00,55.6,54.2,29.90,North,0,2.7,-999.0,95,-99.99,,,0.00,Acu-Link.com,2013-07-18 06:31:00,
2013-07-17 23:46:00,55.6,54.2,29.90,NNW,337,2.2,-999.0,95,-99.99,,,0.00,Acu-Link.com,2013-07-18 06:46:00,